createdAt,value
2017-09-18T00:00:59.307Z,0
2017-09-18T00:02:21.464Z,0
2017-09-18T00:03:43.595Z,0
2017-09-18T00:05:05.758Z,0
2017-09-18T00:06:28.223Z,0
2017-09-18T00:07:50.355Z,0
2017-09-18T00:09:12.862Z,0
2017-09-18T00:10:35.022Z,0
2017-09-18T00:11:57.475Z,0
2017-09-18T00:13:19.303Z,0
2017-09-18T00:14:41.551Z,0
2017-09-18T00:16:03.074Z,0
2017-09-18T00:17:24.704Z,0
2017-09-18T00:18:46.525Z,0
2017-09-18T00:20:08.698Z,0
2017-09-18T00:21:30.488Z,0
2017-09-18T00:22:52.289Z,0
2017-09-18T00:24:14.105Z,0
2017-09-18T00:25:36.914Z,0
2017-09-18T00:26:58.730Z,0
2017-09-18T00:28:20.227Z,0
2017-09-18T00:29:42.035Z,0
2017-09-18T00:31:04.518Z,0
2017-09-18T00:32:26.635Z,0
2017-09-18T00:33:49.111Z,0
2017-09-18T00:35:10.589Z,0
2017-09-18T00:36:32.838Z,0
2017-09-18T00:37:55.294Z,0
2017-09-18T00:39:16.783Z,0
2017-09-18T00:40:38.610Z,0
2017-09-18T00:42:00.113Z,0
2017-09-18T00:43:22.254Z,0
2017-09-18T00:44:44.376Z,0
2017-09-18T00:46:05.559Z,0
2017-09-18T00:47:28.096Z,0
2017-09-18T00:48:50.236Z,0
2017-09-18T00:50:12.361Z,0
2017-09-18T00:51:34.828Z,0
2017-09-18T00:52:57.315Z,0
2017-09-18T00:54:19.134Z,0
2017-09-18T00:55:40.953Z,0
2017-09-18T00:57:03.185Z,0
2017-09-18T00:58:25.667Z,0
2017-09-18T00:59:47.162Z,0
2017-09-18T01:01:09.679Z,0
2017-09-18T01:02:31.535Z,0
2017-09-18T01:03:53.704Z,0
2017-09-18T01:05:15.510Z,0
2017-09-18T01:06:37.705Z,0
2017-09-18T01:07:59.525Z,0
2017-09-18T01:09:22.453Z,0
2017-09-18T01:10:44.015Z,0
2017-09-18T01:12:06.479Z,0
2017-09-18T01:13:28.986Z,0
2017-09-18T01:14:50.537Z,0
2017-09-18T01:16:13.005Z,0
2017-09-18T01:17:34.873Z,0
2017-09-18T01:18:56.170Z,0
2017-09-18T01:20:18.675Z,0
2017-09-18T01:21:40.135Z,0
2017-09-18T01:23:01.285Z,0
2017-09-18T01:24:22.774Z,0
2017-09-18T01:25:44.567Z,0
2017-09-18T01:27:06.685Z,0
2017-09-18T01:28:28.173Z,0
2017-09-18T01:29:50.296Z,0
2017-09-18T01:31:13.141Z,0
2017-09-18T01:32:35.045Z,0
2017-09-18T01:33:57.515Z,0
2017-09-18T01:35:19.335Z,0
2017-09-18T01:36:40.827Z,0
2017-09-18T01:38:03.284Z,0
2017-09-18T01:39:25.417Z,0
2017-09-18T01:40:46.909Z,0
2017-09-18T01:42:09.734Z,0
2017-09-18T01:43:31.545Z,0
2017-09-18T01:44:53.724Z,0
2017-09-18T01:46:15.238Z,0
2017-09-18T01:47:37.071Z,0
2017-09-18T01:48:58.882Z,0
2017-09-18T01:50:20.797Z,0
2017-09-18T01:51:42.626Z,0
2017-09-18T01:53:04.805Z,0
2017-09-18T01:54:26.305Z,0
2017-09-18T01:55:48.775Z,0
2017-09-18T01:57:10.319Z,0
2017-09-18T01:58:33.181Z,0
2017-09-18T01:59:55.297Z,0
2017-09-18T02:01:16.773Z,0
2017-09-18T02:02:38.265Z,0
2017-09-18T02:04:01.072Z,0
2017-09-18T02:05:22.893Z,0
2017-09-18T02:06:44.493Z,0
2017-09-18T02:08:05.663Z,0
2017-09-18T02:09:28.150Z,0
2017-09-18T02:10:49.655Z,0
2017-09-18T02:12:11.514Z,0
2017-09-18T02:13:33.041Z,0
2017-09-18T02:14:55.574Z,0
2017-09-18T02:16:17.404Z,0
2017-09-18T02:17:38.873Z,0
2017-09-18T02:19:00.669Z,0
2017-09-18T02:20:22.975Z,0
2017-09-18T02:21:45.409Z,0
2017-09-18T02:23:07.210Z,0
2017-09-18T02:24:28.700Z,0
2017-09-18T02:25:51.254Z,0
2017-09-18T02:27:12.735Z,0
2017-09-18T02:28:34.905Z,0
2017-09-18T02:29:56.796Z,0
2017-09-18T02:31:19.286Z,0
2017-09-18T02:32:40.873Z,0
2017-09-18T02:34:02.444Z,0
2017-09-18T02:35:24.085Z,0
2017-09-18T02:36:46.313Z,0
2017-09-18T02:38:07.812Z,0
2017-09-18T02:39:29.694Z,0
2017-09-18T02:40:51.194Z,0
2017-09-18T02:42:12.659Z,0
2017-09-18T02:43:34.794Z,0
2017-09-18T02:44:56.265Z,0
2017-09-18T02:46:18.502Z,0
2017-09-18T02:47:41.320Z,0
2017-09-18T02:49:03.450Z,0
2017-09-18T02:50:24.614Z,0
2017-09-18T02:51:47.055Z,0
2017-09-18T02:53:09.434Z,0
2017-09-18T02:54:31.896Z,0
2017-09-18T02:55:54.144Z,0
2017-09-18T02:57:15.677Z,0
2017-09-18T02:58:38.487Z,0
2017-09-18T03:00:00.934Z,0
2017-09-18T03:01:22.454Z,0
2017-09-18T03:02:45.032Z,0
2017-09-18T03:04:07.525Z,0
2017-09-18T03:05:29.448Z,0
2017-09-18T03:06:50.721Z,0
2017-09-18T03:08:11.920Z,0
2017-09-18T03:09:33.766Z,0
2017-09-18T03:10:55.257Z,0
2017-09-18T03:12:16.761Z,0
2017-09-18T03:13:39.226Z,0
2017-09-18T03:15:01.704Z,0
2017-09-18T03:16:23.523Z,0
2017-09-18T03:17:45.326Z,0
2017-09-18T03:19:07.469Z,0
2017-09-18T03:20:29.386Z,0
2017-09-18T03:21:51.503Z,0
2017-09-18T03:23:13.005Z,0
2017-09-18T03:24:35.123Z,0
2017-09-18T03:25:56.627Z,0
2017-09-18T03:27:18.434Z,0
2017-09-18T03:28:40.230Z,0
2017-09-18T03:30:01.723Z,0
2017-09-18T03:31:23.145Z,0
2017-09-18T03:32:45.314Z,0
2017-09-18T03:34:06.154Z,0
2017-09-18T03:35:28.091Z,0
2017-09-18T03:36:50.233Z,0
2017-09-18T03:38:12.017Z,0
2017-09-18T03:39:34.474Z,0
2017-09-18T03:40:55.953Z,0
2017-09-18T03:42:17.843Z,0
2017-09-18T03:43:39.011Z,0
2017-09-18T03:45:00.915Z,0
2017-09-18T03:46:23.042Z,0
2017-09-18T03:47:45.544Z,0
2017-09-18T03:49:07.134Z,0
2017-09-18T03:50:29.301Z,0
2017-09-18T03:51:50.795Z,0
2017-09-18T03:53:13.231Z,0
2017-09-18T03:54:34.719Z,0
2017-09-18T03:55:57.155Z,0
2017-09-18T03:57:18.679Z,0
2017-09-18T03:58:40.882Z,0
2017-09-18T04:00:02.699Z,0
2017-09-18T04:01:24.196Z,0
2017-09-18T04:02:45.656Z,0
2017-09-18T04:04:07.831Z,0
2017-09-18T04:05:29.341Z,0
2017-09-18T04:06:50.843Z,0
2017-09-18T04:08:12.389Z,0
2017-09-18T04:09:33.945Z,0
2017-09-18T04:10:56.054Z,0
2017-09-18T04:12:18.174Z,0
2017-09-18T04:13:39.724Z,0
2017-09-18T04:15:01.874Z,0
2017-09-18T04:16:24.033Z,0
2017-09-18T04:17:45.838Z,0
2017-09-18T04:19:08.022Z,0
2017-09-18T04:20:30.173Z,0
2017-09-18T04:21:51.972Z,0
2017-09-18T04:23:13.770Z,0
2017-09-18T04:24:35.904Z,0
2017-09-18T04:25:57.832Z,0
2017-09-18T04:27:20.020Z,0
2017-09-18T04:28:41.509Z,0
2017-09-18T04:30:03.643Z,0
2017-09-18T04:31:26.594Z,0
2017-09-18T04:32:48.126Z,0
2017-09-18T04:34:10.250Z,0
2017-09-18T04:35:32.380Z,0
2017-09-18T04:36:54.214Z,0
2017-09-18T04:38:15.696Z,0
2017-09-18T04:39:37.613Z,0
2017-09-18T04:41:00.073Z,0
2017-09-18T04:42:21.966Z,0
2017-09-18T04:43:44.433Z,0
2017-09-18T04:45:05.924Z,0
2017-09-18T04:46:27.746Z,0
2017-09-18T04:47:49.262Z,0
2017-09-18T04:49:11.393Z,0
2017-09-18T04:50:32.904Z,0
2017-09-18T04:51:55.081Z,0
2017-09-18T04:53:17.240Z,0
2017-09-18T04:54:39.704Z,0
2017-09-18T04:56:01.513Z,0
2017-09-18T04:57:23.664Z,0
2017-09-18T04:58:46.262Z,0
2017-09-18T05:00:08.095Z,0
2017-09-18T05:01:29.593Z,0
2017-09-18T05:02:51.441Z,0
2017-09-18T05:04:12.995Z,0
2017-09-18T05:05:34.811Z,5
2017-09-18T05:06:56.293Z,5
2017-09-18T05:08:18.410Z,5
2017-09-18T05:09:40.156Z,5
2017-09-18T05:11:02.617Z,5
2017-09-18T05:12:24.747Z,10
2017-09-18T05:13:46.564Z,10
2017-09-18T05:15:09.434Z,10
2017-09-18T05:16:31.574Z,10
2017-09-18T05:17:53.714Z,10
2017-09-18T05:19:15.214Z,10
2017-09-18T05:20:37.665Z,10
2017-09-18T05:22:00.361Z,10
2017-09-18T05:23:22.184Z,10
2017-09-18T05:24:44.013Z,15
2017-09-18T05:26:06.773Z,15
2017-09-18T05:27:28.999Z,20
2017-09-18T05:28:50.233Z,20
2017-09-18T05:30:12.024Z,20
2017-09-18T05:31:34.458Z,25
2017-09-18T05:32:56.607Z,25
2017-09-18T05:34:18.423Z,25
2017-09-18T05:35:39.704Z,30
2017-09-18T05:37:01.444Z,30
2017-09-18T05:38:23.655Z,35
2017-09-18T05:39:45.787Z,35
2017-09-18T05:41:07.944Z,40
2017-09-18T05:42:30.222Z,40
2017-09-18T05:43:52.366Z,45
2017-09-18T05:45:14.186Z,45
2017-09-18T05:46:35.372Z,50
2017-09-18T05:47:57.479Z,50
2017-09-18T05:49:19.613Z,50
2017-09-18T05:50:42.093Z,50
2017-09-18T05:52:03.600Z,50
2017-09-18T05:53:26.313Z,50
2017-09-18T05:54:48.465Z,55
2017-09-18T05:56:10.666Z,60
2017-09-18T05:57:32.181Z,65
2017-09-18T05:58:54.322Z,70
2017-09-18T06:00:15.803Z,70
2017-09-18T06:01:38.270Z,75
2017-09-18T06:03:00.084Z,75
2017-09-18T06:04:22.553Z,75
2017-09-18T06:05:44.363Z,75
2017-09-18T06:07:06.874Z,75
2017-09-18T06:08:29.021Z,75
2017-09-18T06:09:51.134Z,75
2017-09-18T06:11:12.939Z,80
2017-09-18T06:12:34.433Z,80
2017-09-18T06:13:56.246Z,85
2017-09-18T06:15:18.724Z,90
2017-09-18T06:16:40.532Z,90
2017-09-18T06:18:01.715Z,100
2017-09-18T06:19:22.886Z,110
2017-09-18T06:20:45.369Z,110
2017-09-18T06:22:07.511Z,115
2017-09-18T06:23:29.337Z,120
2017-09-18T06:24:50.906Z,120
2017-09-18T06:26:12.971Z,120
2017-09-18T06:27:34.804Z,120
2017-09-18T06:28:57.234Z,125
2017-09-18T06:30:19.184Z,125
2017-09-18T06:31:41.293Z,125
2017-09-18T06:33:02.873Z,125
2017-09-18T06:34:25.024Z,130
2017-09-18T06:35:46.845Z,125
2017-09-18T06:37:09.596Z,125
2017-09-18T06:38:32.194Z,125
2017-09-18T06:39:54.350Z,125
2017-09-18T06:41:16.146Z,120
2017-09-18T06:42:38.885Z,120
2017-09-18T06:44:00.493Z,120
2017-09-18T06:45:22.373Z,125
2017-09-18T06:46:44.524Z,130
2017-09-18T06:48:07.253Z,135
2017-09-18T06:49:29.075Z,140
2017-09-18T06:50:51.225Z,140
2017-09-18T06:52:13.384Z,140
2017-09-18T06:53:35.159Z,145
2017-09-18T06:54:57.393Z,145
2017-09-18T06:56:19.206Z,140
2017-09-18T06:57:41.012Z,135
2017-09-18T06:59:03.555Z,135
2017-09-18T07:00:25.043Z,135
2017-09-18T07:01:46.214Z,140
2017-09-18T07:03:08.357Z,140
2017-09-18T07:04:30.942Z,150
2017-09-18T07:05:53.084Z,145
2017-09-18T07:07:15.231Z,145
2017-09-18T07:08:37.673Z,145
2017-09-18T07:09:59.821Z,145
2017-09-18T07:11:21.317Z,145
2017-09-18T07:12:43.134Z,145
2017-09-18T07:14:05.251Z,155
2017-09-18T07:15:27.334Z,155
2017-09-18T07:16:49.465Z,155
2017-09-18T07:18:11.624Z,160
2017-09-18T07:19:33.560Z,160
2017-09-18T07:20:55.416Z,160
2017-09-18T07:22:17.563Z,175
2017-09-18T07:23:39.700Z,175
2017-09-18T07:25:01.855Z,175
2017-09-18T07:26:24.125Z,175
2017-09-18T07:27:46.294Z,180
2017-09-18T07:29:08.142Z,185
2017-09-18T07:30:30.390Z,195
2017-09-18T07:31:52.553Z,200
2017-09-18T07:33:14.384Z,215
2017-09-18T07:34:36.533Z,210
2017-09-18T07:35:58.354Z,205
2017-09-18T07:37:21.078Z,220
2017-09-18T07:38:42.993Z,220
2017-09-18T07:40:05.203Z,235
2017-09-18T07:41:27.030Z,245
2017-09-18T07:42:49.430Z,230
2017-09-18T07:44:11.303Z,225
2017-09-18T07:45:33.133Z,235
2017-09-18T07:46:55.264Z,240
2017-09-18T07:48:17.066Z,240
2017-09-18T07:49:39.498Z,240
2017-09-18T07:51:01.411Z,245
2017-09-18T07:52:22.909Z,265
2017-09-18T07:53:45.403Z,230
2017-09-18T07:55:06.899Z,235
2017-09-18T07:56:28.714Z,235
2017-09-18T07:57:50.556Z,225
2017-09-18T07:59:13.264Z,220
2017-09-18T08:00:35.413Z,225
2017-09-18T08:01:57.227Z,230
2017-09-18T08:03:19.805Z,235
2017-09-18T08:04:41.874Z,225
2017-09-18T08:06:03.713Z,215
2017-09-18T08:07:25.316Z,210
2017-09-18T08:08:46.815Z,215
2017-09-18T08:10:08.919Z,210
2017-09-18T08:11:31.072Z,210
2017-09-18T08:12:52.872Z,205
2017-09-18T08:14:14.713Z,215
2017-09-18T08:15:36.913Z,210
2017-09-18T08:16:59.440Z,195
2017-09-18T08:18:21.563Z,200
2017-09-18T08:19:43.373Z,190
2017-09-18T08:21:05.796Z,200
2017-09-18T08:22:28.246Z,200
2017-09-18T08:23:50.376Z,200
2017-09-18T08:25:11.905Z,190
2017-09-18T08:26:33.718Z,190
2017-09-18T08:27:55.904Z,200
2017-09-18T08:29:18.069Z,195
2017-09-18T08:30:39.926Z,200
2017-09-18T08:32:02.654Z,200
2017-09-18T08:33:24.461Z,200
2017-09-18T08:34:46.406Z,200
2017-09-18T08:36:07.592Z,200
2017-09-18T08:37:29.753Z,200
2017-09-18T08:38:51.564Z,205
2017-09-18T08:40:13.414Z,200
2017-09-18T08:41:35.254Z,205
2017-09-18T08:42:57.701Z,205
2017-09-18T08:44:19.853Z,210
2017-09-18T08:45:41.999Z,215
2017-09-18T08:47:04.454Z,215
2017-09-18T08:48:26.550Z,235
2017-09-18T08:49:48.351Z,245
2017-09-18T08:51:10.814Z,240
2017-09-18T08:52:32.703Z,230
2017-09-18T08:53:54.883Z,245
2017-09-18T08:55:16.714Z,265
2017-09-18T08:56:38.515Z,265
2017-09-18T08:58:00.670Z,280
2017-09-18T08:59:22.802Z,290
2017-09-18T09:00:44.314Z,285
2017-09-18T09:02:06.773Z,260
2017-09-18T09:03:28.590Z,250
2017-09-18T09:04:50.684Z,240
2017-09-18T09:06:13.214Z,235
2017-09-18T09:07:35.043Z,225
2017-09-18T09:08:57.281Z,210
2017-09-18T09:10:20.013Z,200
2017-09-18T09:11:41.822Z,200
2017-09-18T09:13:03.963Z,195
2017-09-18T09:14:25.454Z,190
2017-09-18T09:15:47.514Z,185
2017-09-18T09:17:09.351Z,180
2017-09-18T09:18:31.172Z,185
2017-09-18T09:19:52.974Z,190
2017-09-18T09:21:15.462Z,190
2017-09-18T09:22:38.043Z,200
2017-09-18T09:24:00.174Z,215
2017-09-18T09:25:21.998Z,240
2017-09-18T09:26:44.079Z,265
2017-09-18T09:28:06.535Z,290
2017-09-18T09:29:28.713Z,310
2017-09-18T09:30:50.516Z,330
2017-09-18T09:32:12.595Z,355
2017-09-18T09:33:35.060Z,355
2017-09-18T09:34:57.193Z,355
2017-09-18T09:36:19.333Z,350
2017-09-18T09:37:41.764Z,340
2017-09-18T09:39:03.291Z,305
2017-09-18T09:40:25.770Z,270
2017-09-18T09:41:47.577Z,245
2017-09-18T09:43:09.297Z,235
2017-09-18T09:44:31.513Z,230
2017-09-18T09:45:53.382Z,230
2017-09-18T09:47:15.189Z,225
2017-09-18T09:48:37.693Z,215
2017-09-18T09:49:59.500Z,200
2017-09-18T09:51:21.374Z,185
2017-09-18T09:52:43.835Z,165
2017-09-18T09:54:06.343Z,155
2017-09-18T09:55:27.514Z,145
2017-09-18T09:56:49.334Z,140
2017-09-18T09:58:11.474Z,140
2017-09-18T09:59:33.613Z,145
2017-09-18T10:00:55.864Z,140
2017-09-18T10:02:18.333Z,140
2017-09-18T10:03:40.520Z,135
2017-09-18T10:05:02.666Z,130
2017-09-18T10:06:25.133Z,130
2017-09-18T10:07:47.293Z,135
2017-09-18T10:09:09.122Z,150
2017-09-18T10:10:31.234Z,175
2017-09-18T10:11:53.429Z,195
2017-09-18T10:13:15.576Z,220
2017-09-18T10:14:37.736Z,250
2017-09-18T10:15:59.886Z,255
2017-09-18T10:17:21.500Z,245
2017-09-18T10:18:43.314Z,240
2017-09-18T10:20:05.136Z,235
2017-09-18T10:21:28.102Z,240
2017-09-18T10:22:50.262Z,240
2017-09-18T10:24:12.081Z,245
2017-09-18T10:25:34.262Z,255
2017-09-18T10:26:56.693Z,265
2017-09-18T10:28:18.633Z,265
2017-09-18T10:29:40.471Z,260
2017-09-18T10:31:02.282Z,255
2017-09-18T10:32:24.556Z,250
2017-09-18T10:33:46.693Z,245
2017-09-18T10:35:08.567Z,240
2017-09-18T10:36:30.574Z,235
2017-09-18T10:37:52.954Z,225
2017-09-18T10:39:15.133Z,220
2017-09-18T10:40:37.573Z,225
2017-09-18T10:41:59.052Z,225
2017-09-18T10:43:21.878Z,225
2017-09-18T10:44:44.068Z,220
2017-09-18T10:46:06.553Z,220
2017-09-18T10:47:28.703Z,220
2017-09-18T10:48:51.302Z,225
2017-09-18T10:50:13.126Z,225
2017-09-18T10:51:35.589Z,225
2017-09-18T10:52:57.750Z,230
2017-09-18T10:54:19.606Z,240
2017-09-18T10:55:42.098Z,245
2017-09-18T10:57:03.915Z,250
2017-09-18T10:58:25.422Z,270
2017-09-18T10:59:47.198Z,290
2017-09-18T11:01:09.664Z,310
2017-09-18T11:02:32.114Z,340
2017-09-18T11:03:54.234Z,370
2017-09-18T11:05:16.352Z,380
2017-09-18T11:06:38.302Z,385
2017-09-18T11:08:00.274Z,400
2017-09-18T11:09:21.505Z,405
2017-09-18T11:10:43.943Z,405
2017-09-18T11:12:05.752Z,405
2017-09-18T11:13:28.205Z,400
2017-09-18T11:14:50.484Z,395
2017-09-18T11:16:12.075Z,410
2017-09-18T11:17:34.214Z,380
2017-09-18T11:18:56.384Z,370
2017-09-18T11:20:18.844Z,350
2017-09-18T11:21:41.287Z,325
2017-09-18T11:23:03.087Z,335
2017-09-18T11:24:24.911Z,345
2017-09-18T11:25:46.744Z,305
2017-09-18T11:27:08.600Z,325
2017-09-18T11:28:30.184Z,325
2017-09-18T11:29:52.114Z,290
2017-09-18T11:31:14.571Z,315
2017-09-18T11:32:36.673Z,340
2017-09-18T11:33:58.813Z,320
2017-09-18T11:35:20.963Z,310
2017-09-18T11:36:43.114Z,295
2017-09-18T11:38:05.348Z,285
2017-09-18T11:39:27.503Z,285
2017-09-18T11:40:49.666Z,290
2017-09-18T11:42:12.143Z,285
2017-09-18T11:43:34.660Z,310
2017-09-18T11:44:56.876Z,320
2017-09-18T11:46:19.343Z,305
2017-09-18T11:47:41.143Z,295
2017-09-18T11:49:03.203Z,310
2017-09-18T11:50:25.101Z,335
2017-09-18T11:51:48.235Z,340
2017-09-18T11:53:10.379Z,330
2017-09-18T11:54:32.494Z,310
2017-09-18T11:55:54.292Z,300
2017-09-18T11:57:16.733Z,290
2017-09-18T11:58:38.886Z,285
2017-09-18T12:00:01.065Z,280
2017-09-18T12:01:23.222Z,265
2017-09-18T12:02:45.360Z,255
2017-09-18T12:04:07.182Z,250
2017-09-18T12:05:29.411Z,240
2017-09-18T12:06:51.564Z,235
2017-09-18T12:08:13.729Z,230
2017-09-18T12:09:36.256Z,230
2017-09-18T12:10:58.821Z,225
2017-09-18T12:12:20.955Z,225
2017-09-18T12:13:43.023Z,225
2017-09-18T12:15:04.894Z,235
2017-09-18T12:16:27.723Z,245
2017-09-18T12:17:50.249Z,260
2017-09-18T12:19:12.401Z,275
2017-09-18T12:20:34.604Z,285
2017-09-18T12:21:57.370Z,300
2017-09-18T12:23:19.575Z,305
2017-09-18T12:24:41.405Z,310
2017-09-18T12:26:03.874Z,310
2017-09-18T12:27:26.344Z,305
2017-09-18T12:28:48.485Z,310
2017-09-18T12:30:10.657Z,330
2017-09-18T12:31:32.803Z,325
2017-09-18T12:32:55.323Z,330
2017-09-18T12:34:17.788Z,330
2017-09-18T12:35:39.951Z,340
2017-09-18T12:37:01.763Z,335
2017-09-18T12:38:23.621Z,335
2017-09-18T12:39:45.449Z,335
2017-09-18T12:41:07.621Z,335
2017-09-18T12:42:30.116Z,330
2017-09-18T12:43:52.982Z,325
2017-09-18T12:45:15.133Z,320
2017-09-18T12:46:37.299Z,320
2017-09-18T12:47:59.442Z,310
2017-09-18T12:49:22.033Z,300
2017-09-18T12:50:44.193Z,310
2017-09-18T12:52:06.313Z,315
2017-09-18T12:53:27.894Z,325
2017-09-18T12:54:50.343Z,330
2017-09-18T12:56:12.473Z,325
2017-09-18T12:57:34.937Z,320
2017-09-18T12:58:57.059Z,310
2017-09-18T13:00:18.852Z,290
2017-09-18T13:01:40.978Z,265
2017-09-18T13:03:02.815Z,250
2017-09-18T13:04:24.992Z,250
2017-09-18T13:05:47.133Z,250
2017-09-18T13:07:08.943Z,235
2017-09-18T13:08:31.206Z,205
2017-09-18T13:09:53.472Z,170
2017-09-18T13:11:15.944Z,145
2017-09-18T13:12:38.415Z,130
2017-09-18T13:14:00.923Z,125
2017-09-18T13:15:22.851Z,115
2017-09-18T13:16:45.596Z,105
2017-09-18T13:18:07.724Z,110
2017-09-18T13:19:29.980Z,115
2017-09-18T13:20:52.124Z,130
2017-09-18T13:22:14.262Z,150
2017-09-18T13:23:35.756Z,170
2017-09-18T13:24:57.260Z,180
2017-09-18T13:26:19.438Z,190
2017-09-18T13:27:42.193Z,200
2017-09-18T13:29:04.363Z,215
2017-09-18T13:30:26.172Z,220
2017-09-18T13:31:48.024Z,215
2017-09-18T13:33:10.828Z,235
2017-09-18T13:34:32.727Z,245
2017-09-18T13:35:55.201Z,245
2017-09-18T13:37:17.015Z,245
2017-09-18T13:38:38.754Z,250
2017-09-18T13:40:01.216Z,255
2017-09-18T13:41:23.680Z,255
2017-09-18T13:42:45.495Z,275
2017-09-18T13:44:07.997Z,285
2017-09-18T13:45:30.139Z,280
2017-09-18T13:46:52.634Z,295
2017-09-18T13:48:14.772Z,285
2017-09-18T13:49:37.503Z,270
2017-09-18T13:50:59.973Z,250
2017-09-18T13:52:22.194Z,255
2017-09-18T13:53:44.392Z,255
2017-09-18T13:55:06.483Z,250
2017-09-18T13:56:28.635Z,230
2017-09-18T13:57:50.473Z,235
2017-09-18T13:59:12.931Z,235
2017-09-18T14:00:35.653Z,225
2017-09-18T14:01:58.231Z,205
2017-09-18T14:03:20.046Z,205
2017-09-18T14:04:41.883Z,195
2017-09-18T14:06:04.281Z,200
2017-09-18T14:07:26.380Z,215
2017-09-18T14:08:48.517Z,210
2017-09-18T14:10:10.775Z,210
2017-09-18T14:11:33.312Z,200
2017-09-18T14:12:54.822Z,185
2017-09-18T14:14:16.988Z,180
2017-09-18T14:15:38.864Z,185
2017-09-18T14:17:01.282Z,180
2017-09-18T14:18:23.114Z,190
2017-09-18T14:19:45.690Z,180
2017-09-18T14:21:07.831Z,185
2017-09-18T14:22:30.317Z,200
2017-09-18T14:23:52.183Z,210
2017-09-18T14:25:14.647Z,225
2017-09-18T14:26:36.798Z,230
2017-09-18T14:27:59.200Z,235
2017-09-18T14:29:21.734Z,225
2017-09-18T14:30:43.902Z,220
2017-09-18T14:32:06.181Z,215
2017-09-18T14:33:28.282Z,225
2017-09-18T14:34:50.117Z,225
2017-09-18T14:36:12.576Z,225
2017-09-18T14:37:35.033Z,215
2017-09-18T14:39:12.382Z,205
2017-09-18T14:40:34.847Z,195
2017-09-18T14:41:57.422Z,180
2017-09-18T14:43:19.924Z,165
2017-09-18T14:44:42.696Z,160
2017-09-18T14:46:04.985Z,160
2017-09-18T14:47:27.181Z,160
2017-09-18T14:48:49.310Z,155
2017-09-18T14:50:11.893Z,155
2017-09-18T14:51:34.084Z,150
2017-09-18T14:52:55.903Z,150
2017-09-18T14:54:18.388Z,160
2017-09-18T14:55:41.483Z,165
2017-09-18T14:57:03.423Z,175
2017-09-18T14:58:25.685Z,175
2017-09-18T14:59:47.511Z,175
2017-09-18T15:01:10.312Z,165
2017-09-18T15:02:32.794Z,160
2017-09-18T15:03:55.362Z,145
2017-09-18T15:05:17.501Z,135
2017-09-18T15:06:40.104Z,120
2017-09-18T15:08:02.256Z,110
2017-09-18T15:09:24.454Z,105
2017-09-18T15:10:46.002Z,100
2017-09-18T15:12:08.853Z,95
2017-09-18T15:13:31.024Z,85
2017-09-18T15:14:52.879Z,80
2017-09-18T15:16:15.079Z,80
2017-09-18T15:17:37.571Z,80
2017-09-18T15:18:59.392Z,85
2017-09-18T15:20:21.653Z,95
2017-09-18T15:21:43.792Z,110
2017-09-18T15:23:06.642Z,120
2017-09-18T15:24:28.483Z,130
2017-09-18T15:25:50.669Z,140
2017-09-18T15:27:12.813Z,140
2017-09-18T15:28:35.583Z,140
2017-09-18T15:29:57.535Z,140
2017-09-18T15:31:19.145Z,135
2017-09-18T15:32:41.335Z,135
2017-09-18T15:34:04.144Z,135
2017-09-18T15:35:25.952Z,135
2017-09-18T15:36:47.137Z,140
2017-09-18T15:38:09.365Z,135
2017-09-18T15:39:32.062Z,135
2017-09-18T15:40:54.618Z,135
2017-09-18T15:42:16.473Z,130
2017-09-18T15:43:38.944Z,125
2017-09-18T15:45:01.022Z,125
2017-09-18T15:46:22.875Z,120
2017-09-18T15:47:45.381Z,120
2017-09-18T15:49:07.863Z,115
2017-09-18T15:50:30.323Z,115
2017-09-18T15:51:52.485Z,110
2017-09-18T15:53:15.022Z,110
2017-09-18T15:54:37.163Z,105
2017-09-18T15:55:59.953Z,105
2017-09-18T15:57:22.450Z,100
2017-09-18T15:58:44.592Z,100
2017-09-18T16:00:06.771Z,95
2017-09-18T16:01:29.604Z,95
2017-09-18T16:02:52.062Z,90
2017-09-18T16:04:14.241Z,90
2017-09-18T16:05:36.082Z,90
2017-09-18T16:06:58.542Z,85
2017-09-18T16:08:20.703Z,80
2017-09-18T16:09:42.831Z,75
2017-09-18T16:11:04.997Z,70
2017-09-18T16:12:27.161Z,65
2017-09-18T16:13:49.659Z,65
2017-09-18T16:15:12.095Z,60
2017-09-18T16:16:34.274Z,60
2017-09-18T16:17:56.721Z,55
2017-09-18T16:19:19.239Z,55
2017-09-18T16:20:41.136Z,55
2017-09-18T16:22:03.669Z,50
2017-09-18T16:23:26.176Z,50
2017-09-18T16:24:48.340Z,45
2017-09-18T16:26:10.839Z,45
2017-09-18T16:27:32.342Z,45
2017-09-18T16:28:55.162Z,45
2017-09-18T16:30:17.297Z,40
2017-09-18T16:31:39.932Z,40
2017-09-18T16:33:02.081Z,40
2017-09-18T16:34:24.484Z,35
2017-09-18T16:35:46.954Z,35
2017-09-18T16:37:09.553Z,35
2017-09-18T16:38:32.090Z,35
2017-09-18T16:39:54.513Z,35
2017-09-18T16:41:17.126Z,35
2017-09-18T16:42:38.997Z,35
2017-09-18T16:44:01.495Z,30
2017-09-18T16:45:23.577Z,30
2017-09-18T16:46:46.059Z,30
2017-09-18T16:48:08.610Z,30
2017-09-18T16:49:31.216Z,25
2017-09-18T16:50:53.983Z,25
2017-09-18T16:52:16.144Z,20
2017-09-18T16:53:38.319Z,20
2017-09-18T16:55:00.466Z,20
2017-09-18T16:56:22.990Z,15
2017-09-18T16:57:45.476Z,15
2017-09-18T16:59:07.634Z,15
2017-09-18T17:00:29.783Z,15
2017-09-18T17:01:52.579Z,15
2017-09-18T17:03:14.818Z,10
2017-09-18T17:04:37.303Z,10
2017-09-18T17:05:59.821Z,10
2017-09-18T17:07:22.575Z,10
2017-09-18T17:08:44.404Z,10
2017-09-18T17:10:06.567Z,10
2017-09-18T17:11:29.050Z,10
2017-09-18T17:12:51.546Z,10
2017-09-18T17:14:13.081Z,10
2017-09-18T17:15:35.252Z,5
2017-09-18T17:16:57.486Z,5
2017-09-18T17:18:20.167Z,5
2017-09-18T17:19:42.349Z,5
2017-09-18T17:21:04.946Z,5
2017-09-18T17:22:26.798Z,5
2017-09-18T17:23:49.324Z,5
2017-09-18T17:25:11.170Z,5
2017-09-18T17:26:33.329Z,5
2017-09-18T17:27:54.863Z,5
2017-09-18T17:29:17.634Z,0
2017-09-18T17:30:39.804Z,0
2017-09-18T17:32:01.655Z,0
2017-09-18T17:33:23.491Z,0
2017-09-18T17:34:46.342Z,0
2017-09-18T17:36:08.816Z,0
2017-09-18T17:37:31.335Z,0
2017-09-18T17:38:53.839Z,0
2017-09-18T17:40:16.645Z,0
2017-09-18T17:41:39.153Z,0
2017-09-18T17:43:01.000Z,0
2017-09-18T17:44:23.483Z,0
2017-09-18T17:45:46.364Z,0
2017-09-18T17:47:09.001Z,0
2017-09-18T17:48:30.547Z,0
2017-09-18T17:49:52.413Z,0
2017-09-18T17:51:14.841Z,0
2017-09-18T17:52:36.995Z,0
2017-09-18T17:53:59.167Z,0
2017-09-18T17:55:21.055Z,0
2017-09-18T17:56:43.590Z,0
2017-09-18T17:58:06.147Z,0
2017-09-18T17:59:28.064Z,0
2017-09-18T18:00:50.027Z,0
2017-09-18T18:02:11.814Z,0
2017-09-18T18:03:33.987Z,0
2017-09-18T18:04:56.494Z,0
2017-09-18T18:06:19.054Z,0
2017-09-18T18:07:41.905Z,0
2017-09-18T18:09:04.432Z,0
2017-09-18T18:10:26.302Z,0
2017-09-18T18:11:48.476Z,0
2017-09-18T18:13:10.894Z,0
2017-09-18T18:14:33.114Z,0
2017-09-18T18:15:55.264Z,0
2017-09-18T18:17:17.404Z,0
2017-09-18T18:18:40.264Z,0
2017-09-18T18:20:02.753Z,0
2017-09-18T18:21:25.010Z,0
2017-09-18T18:22:47.332Z,0
2017-09-18T18:24:09.774Z,0
2017-09-18T18:25:31.953Z,0
2017-09-18T18:26:54.590Z,0
2017-09-18T18:28:17.138Z,0
2017-09-18T18:29:39.293Z,0
2017-09-18T18:31:01.932Z,0
2017-09-18T18:32:24.069Z,0
2017-09-18T18:33:46.579Z,0
2017-09-18T18:35:09.321Z,0
2017-09-18T18:36:31.456Z,0
2017-09-18T18:37:53.968Z,0
2017-09-18T18:39:16.128Z,0
2017-09-18T18:40:38.535Z,0
2017-09-18T18:42:00.761Z,0
2017-09-18T18:43:23.244Z,0
2017-09-18T18:44:45.754Z,0
2017-09-18T18:46:08.223Z,0
2017-09-18T18:47:30.412Z,0
2017-09-18T18:48:52.557Z,0
2017-09-18T18:50:14.729Z,0
2017-09-18T18:51:37.473Z,0
2017-09-18T18:52:59.448Z,0
2017-09-18T18:54:21.707Z,0
2017-09-18T18:55:43.588Z,0
2017-09-18T18:57:05.878Z,0
2017-09-18T18:58:27.874Z,0
2017-09-18T18:59:50.035Z,0
2017-09-18T19:01:12.238Z,0
2017-09-18T19:02:34.752Z,0
2017-09-18T19:03:56.952Z,0
2017-09-18T19:05:19.175Z,0
2017-09-18T19:06:41.832Z,0
2017-09-18T19:08:04.820Z,0
2017-09-18T19:09:27.376Z,0
2017-09-18T19:10:49.374Z,0
2017-09-18T19:12:11.334Z,0
2017-09-18T19:13:33.757Z,0
2017-09-18T19:14:55.325Z,0
2017-09-18T19:16:17.779Z,0
2017-09-18T19:17:39.656Z,0
2017-09-18T19:19:02.527Z,0
2017-09-18T19:20:25.042Z,0
2017-09-18T19:21:47.541Z,0
2017-09-18T19:23:09.382Z,0
2017-09-18T19:24:31.528Z,0
2017-09-18T19:25:54.125Z,0
2017-09-18T19:27:16.474Z,0